Meteorológiai információk azoknak akik tudják olvasni.

METAR = LHBP 161830Z VRB03KT CAVOK 03/00 Q1013 NOSIG

9 órás TAF = TAF TAF LHBP 242330Z 2423/2424 30008KT CAVOK BECMG 2506/2509 24010KT OVC030 TEMPO 2509/2515 24015G25KT 8000 -RA BKN013 OVC025 BECMG 2515/2518 30008KT CAVOK

24 órás TAF = TAF TAF LHBP 161715Z 1618/1718 VRB03KT CAVOK BECMG 1700/1703 18006KT BECMG 1711/1713 23010KT BECMG 1715/1717 BKN030

ÁLLOMÁS.................... LHBP
ÉSZLELÉS................... Wed Jan 16, 19:30 CET
MOST....................... Wed Jan 16, 19:48 CET
IDŐ........................ 18 perccel ezelőtt
SZÉL....................... változó irányból 3 csomó
LÁTÁSTÁVOLSÁG.............. 10 km vagy több
FELHŐZET................... jelentős felhőzet nincs
HŐMÉRSÉKLET................ 37°F (3°C)
HARMATPONT................. 32°F (0°C)
PÁRATARTALOM............... 81%
LÉGNYOMÁS.................. 1013 hPa (29.91 in Hg)

További információ LHBP állomásról

Meteor információ kérése:        állomásról.    

 

www.tothgeza.hu

 

English version
Copyright © 2003-2019 Tóth Géza Minden jog fenntartva.